Data for 04/14/2018

Time Sea-Level Adjusted Pressure Absolute Pressure Temperature Relative Humidity Dew Point   
(mb) (inHg) (mb) (inHg) (C) (F) (%) (C) (F)
00:05 1025 30.27 854 25.22 0.7 33.2 63 -5.5 22.1
00:10 1025 30.27 854 25.22 0.8 33.4 63 -5.5 22.1
00:15 1025 30.27 854 25.22 0.7 33.3 62 -5.7 21.7
00:20 1025 30.27 854 25.22 0.8 33.4 63 -5.6 22
00:25 1025 30.27 854 25.22 0.6 33.1 64 -5.5 22.1
00:30 1025 30.27 854 25.22 0.5 32.9 65 -5.4 22.2
00:35 1025 30.27 854 25.22 0.4 32.7 64 -5.6 22
00:40 1025 30.27 854 25.22 0.4 32.8 65 -5.4 22.3
00:45 1025 30.27 854 25.22 0.4 32.7 66 -5.3 22.4
00:50 1025 30.27 854 25.22 0.1 32.2 66 -5.6 22
00:55 1025 30.27 854 25.22 0.4 32.8 64 -5.6 22
01:00 1025 30.27 854 25.22 0.6 33 65 -5.2 22.6
01:05 1025 30.27 854 25.22 0.4 32.7 65 -5.4 22.3
01:10 1025 30.27 854 25.22 0.3 32.5 66 -5.4 22.3
01:15 1025 30.27 854 25.22 0.2 32.4 66 -5.3 22.5
01:20 1025 30.27 854 25.22 0.3 32.6 65 -5.4 22.2
01:25 1025 30.27 854 25.22 0.5 32.8 66 -5.2 22.7
01:30 1025 30.27 854 25.22 0.4 32.7 66 -5.2 22.6
01:35 1025 30.27 854 25.22 0.3 32.6 67 -5.1 22.7
01:40 1025 30.27 854 25.22 0.2 32.4 69 -4.9 23.2
01:45 1025 30.27 854 25.22 -0 32 69 -5 22.9
01:50 1025 30.27 854 25.22 -0.1 31.9 69 -5 23
01:55 1025 30.27 854 25.22 -0.1 31.9 69 -5 23
02:00 1025 30.27 854 25.22 -0 32 69 -5.1 22.9
02:05 1025 30.27 854 25.22 0.1 32.1 69 -4.9 23.1
02:10 1025 30.27 854 25.22 0 32 69 -5.1 22.8
02:15 1025 30.27 854 25.22 0 32 69 -5 23
02:20 1025 30.27 854 25.22 0 32 69 -5.1 22.9
02:25 1025 30.27 854 25.22 0 32.1 69 -5 22.9
02:30 1025 30.27 854 25.22 0 32 68 -5.1 22.7
02:35 1025 30.27 854 25.22 -0 32 68 -5.1 22.7
02:40 1024 30.24 854 25.22 -0.1 31.8 68 -5.3 22.5
02:45 1024 30.24 854 25.22 -0.1 31.8 67 -5.4 22.2
02:50 1024 30.24 854 25.22 -0.1 31.9 66 -5.6 21.9
02:55 1024 30.24 853 25.19 -0 31.9 67 -5.5 22.1
03:00 1024 30.24 853 25.19 -0.2 31.6 67 -5.6 22
03:05 1024 30.24 853 25.19 -0.2 31.6 67 -5.5 22
03:10 1024 30.24 853 25.19 -0.2 31.7 67 -5.5 22.1
03:15 1024 30.24 853 25.19 -0.2 31.6 67 -5.5 22.1
03:20 1024 30.24 853 25.19 -0.1 31.8 66 -5.7 21.7
03:25 1024 30.24 853 25.19 -0 31.9 67 -5.4 22.2
03:30 1024 30.24 853 25.19 -0.2 31.7 69 -5.2 22.6
03:35 1024 30.24 853 25.19 -0.3 31.5 69 -5.3 22.4
03:40 1024 30.24 853 25.19 -0.4 31.3 70 -5.2 22.7
03:45 1024 30.24 853 25.19 -0.5 31.2 70 -5.3 22.4
03:50 1024 30.24 853 25.19 -0.6 31 70 -5.3 22.5
03:55 1024 30.24 853 25.19 -0.6 30.9 71 -5.3 22.5
04:00 1024 30.24 853 25.19 -0.5 31.1 70 -5.3 22.5
04:05 1024 30.24 854 25.22 -0.4 31.3 69 -5.4 22.4
04:10 1024 30.24 854 25.22 -0.2 31.6 69 -5.3 22.4
04:15 1024 30.24 854 25.22 -0.1 31.9 68 -5.2 22.6
04:20 1024 30.24 854 25.22 -0.1 31.7 70 -5 23.1
04:25 1024 30.24 854 25.22 -0.2 31.6 69 -5.1 22.8
04:30 1024 30.24 854 25.22 -0.5 31.1 72 -4.9 23.2
04:35 1024 30.24 854 25.22 -0.7 30.7 72 -5.2 22.6
04:40 1024 30.24 853 25.19 -0.7 30.7 72 -5.3 22.5
04:45 1024 30.24 853 25.19 -0.7 30.8 72 -5.1 22.8
04:50 1024 30.24 853 25.19 -0.7 30.7 72 -5.1 22.9
04:55 1024 30.24 853 25.19 -0.7 30.7 72 -5.2 22.6
05:00 1024 30.24 853 25.19 -0.7 30.7 72 -5.2 22.7
05:05 1024 30.24 853 25.19 -0.8 30.6 73 -5 23
05:10 1024 30.24 853 25.19 -0.8 30.5 74 -5 23.1
05:15 1024 30.24 853 25.19 -0.8 30.5 72 -5.2 22.6
05:20 1024 30.24 853 25.19 -0.8 30.6 74 -4.9 23.1
05:25 1024 30.24 853 25.19 -0.8 30.5 73 -5 23
05:30 1024 30.24 853 25.19 -0.9 30.4 74 -4.9 23.2
05:35 1024 30.24 853 25.19 -0.9 30.4 73 -5.2 22.7
05:40 1024 30.24 854 25.22 -0.8 30.5 73 -5.1 22.7
05:45 1024 30.24 854 25.22 -0.7 30.7 73 -4.9 23.2
05:50 1024 30.24 854 25.22 -0.7 30.8 73 -5 23
05:55 1024 30.24 854 25.22 -0.7 30.8 73 -4.9 23.2
06:00 1024 30.24 854 25.22 -0.8 30.5 74 -4.9 23.2
06:05 1024 30.24 854 25.22 -0.8 30.6 75 -4.8 23.4
06:10 1024 30.24 854 25.22 -0.8 30.6 73 -5 22.9
06:15 1024 30.24 854 25.22 -0.5 31.2 72 -5 23
06:20 1024 30.24 854 25.22 -0.4 31.3 71 -5 23.1
06:25 1024 30.24 854 25.22 -0.1 31.8 69 -5.1 22.7
06:30 1024 30.24 854 25.22 0.1 32.1 70 -4.8 23.3
06:35 1024 30.24 854 25.22 -0.1 31.9 70 -4.8 23.3
06:40 1024 30.24 854 25.22 0 32.1 70 -4.7 23.5
06:45 1024 30.24 854 25.22 -0.1 31.9 72 -4.6 23.8
06:50 1024 30.24 854 25.22 -0.2 31.6 73 -4.5 24
06:55 1024 30.24 853 25.19 -0.3 31.5 74 -4.4 24.1
07:00 1024 30.24 853 25.19 -0.3 31.5 74 -4.4 24.1
07:05 1024 30.24 853 25.19 -0.2 31.6 74 -4.3 24.3
07:10 1024 30.24 853 25.19 -0.1 31.8 74 -4.2 24.4
07:15 1024 30.24 853 25.19 -0.1 31.8 73 -4.3 24.2
07:20 1024 30.24 853 25.19 -0.1 31.7 74 -4.3 24.3
07:25 1024 30.24 853 25.19 -0.3 31.6 75 -4.1 24.6
07:30 1024 30.24 853 25.19 -0.2 31.6 75 -4.2 24.5
07:35 1024 30.24 853 25.19 -0.1 31.8 74 -4.2 24.4
07:40 1024 30.24 853 25.19 0.1 32.2 72 -4.5 24
07:45 1024 30.24 853 25.19 0.3 32.6 68 -4.9 23.2
07:50 1024 30.24 853 25.19 0.6 33.2 66 -4.9 23.1
07:55 1024 30.24 853 25.19 0.9 33.7 64 -5 22.9
08:00 1024 30.24 853 25.19 1.2 34.2 62 -5.2 22.6
08:05 1024 30.24 853 25.19 1.7 35 62 -4.9 23.3
08:10 1024 30.24 853 25.19 2 35.5 64 -4.2 24.4
08:15 1024 30.24 853 25.19 2 35.5 62 -4.5 23.9
08:20 1024 30.24 853 25.19 2.3 36.2 60 -4.7 23.5
08:25 1024 30.24 853 25.19 2.8 37.1 58 -4.7 23.6
08:30 1024 30.24 853 25.19 3.9 39 54 -4.5 23.9
08:35 1024 30.24 853 25.19 4.6 40.3 53 -4.2 24.4
08:40 1024 30.24 853 25.19 4.8 40.6 53 -4.1 24.6
08:45 1024 30.24 853 25.19 4.7 40.5 53 -3.9 24.9
08:50 1024 30.24 853 25.19 4.8 40.6 52 -4.2 24.5
08:55 1024 30.24 853 25.19 4.7 40.5 54 -3.8 25.1
09:00 1024 30.24 853 25.19 5 41 51 -4.4 24.1
09:05 1024 30.24 853 25.19 5 41.1 49 -4.8 23.4
09:10 1024 30.24 853 25.19 5.3 41.6 49 -4.6 23.8
09:15 1024 30.24 853 25.19 5.5 41.8 49 -4.4 24
09:20 1024 30.24 853 25.19 5.4 41.6 49 -4.4 24
09:25 1024 30.24 853 25.19 5.4 41.7 49 -4.6 23.8
09:30 1024 30.24 853 25.19 5.4 41.7 49 -4.5 23.9
09:35 1024 30.24 853 25.19 5.7 42.2 48 -4.6 23.7
09:40 1024 30.24 853 25.19 6.2 43.2 47 -4.1 24.5
09:45 1024 30.24 853 25.19 6.6 43.9 47 -4 24.9
09:50 1024 30.24 853 25.19 6.9 44.5 46 -3.8 25.2
09:55 1024 30.24 853 25.19 6.5 43.8 47 -3.9 25.1
10:00 1024 30.24 853 25.19 6.6 43.9 46 -4.3 24.3
10:05 1024 30.24 853 25.19 7 44.5 44 -4.4 24.1
10:10 1024 30.24 853 25.19 7.2 44.9 45 -3.8 25.1
10:15 1024 30.24 853 25.19 7 44.5 49 -3.1 26.4
10:20 1024 30.24 853 25.19 6.9 44.3 50 -2.8 26.9
10:25 1024 30.24 853 25.19 6.5 43.7 49 -3.3 26
10:30 1024 30.24 853 25.19 7 44.5 48 -3.2 26.2
10:35 1024 30.24 853 25.19 6.9 44.5 48 -3.2 26.2
10:40 1024 30.24 853 25.19 7.7 45.9 46 -3.1 26.4
10:45 1024 30.24 853 25.19 8.3 46.9 43 -3.5 25.8
10:50 1023 30.21 853 25.19 8 46.3 46 -3 26.6
10:55 1023 30.21 853 25.19 7.8 46.1 47 -2.8 27
11:00 1023 30.21 853 25.19 7.9 46.2 45 -3.4 25.9
11:05 1023 30.21 853 25.19 7.7 45.9 47 -2.9 26.9
11:10 1023 30.21 853 25.19 7.8 46.1 45 -3.5 25.7
11:15 1023 30.21 853 25.19 7.9 46.2 45 -3.4 25.9
11:20 1023 30.21 852 25.16 8.2 46.7 45 -3 26.6
11:25 1023 30.21 852 25.16 8.3 47 44 -3.3 26
11:30 1023 30.21 852 25.16 8.6 47.4 42 -3.5 25.7
11:35 1023 30.21 852 25.16 8.6 47.5 43 -3.4 26
11:40 1023 30.21 852 25.16 8.6 47.5 43 -3.3 26.1
11:45 1023 30.21 852 25.16 8.7 47.6 42 -3.4 26
11:50 1023 30.21 852 25.16 9 48.1 41 -3.5 25.8
11:55 1023 30.21 852 25.16 9.2 48.5 41 -3.3 26.1
12:00 1023 30.21 852 25.16 9.5 49.1 36 -4.6 23.6
12:05 1023 30.21 852 25.16 9.8 49.7 36 -4.5 23.9
12:10 1023 30.21 852 25.16 9.8 49.7 34 -5.3 22.4
12:15 1023 30.21 852 25.16 9.9 49.9 34 -5.2 22.6
12:20 1023 30.21 852 25.16 10.1 50.2 34 -5.1 22.8
12:25 1023 30.21 852 25.16 10.6 51 35 -4.4 24.1
12:30 1023 30.21 852 25.16 11.2 52.1 31 -5.2 22.7
12:35 1023 30.21 852 25.16 10.9 51.6 32 -5.3 22.4
12:40 1022 30.18 852 25.16 10.6 51.2 33 -4.8 23.3
12:45 1022 30.18 852 25.16 11 51.7 32 -4.9 23.1
12:50 1022 30.18 852 25.16 10.9 51.5 31 -5.4 22.3
12:55 1022 30.18 852 25.16 10.5 50.9 32 -5.4 22.3
13:00 1022 30.18 852 25.16 10.7 51.2 31 -5.7 21.7
13:05 1022 30.18 851 25.13 10.9 51.6 32 -5.3 22.5
13:10 1022 30.18 851 25.13 10.7 51.3 32 -5.3 22.4
13:15 1022 30.18 851 25.13 10.3 50.6 32 -5.8 21.6
13:20 1022 30.18 851 25.13 10 50 32 -6 21.2
13:25 1022 30.18 851 25.13 10 50 34 -5.3 22.5
13:30 1022 30.18 851 25.13 10.4 50.7 32 -5.6 21.9
13:35 1022 30.18 851 25.13 10.8 51.4 32 -5 22.9
13:40 1022 30.18 851 25.13 10.4 50.7 32 -5.7 21.7
13:45 1022 30.18 851 25.13 10.1 50.1 32 -5.8 21.5
13:50 1022 30.18 851 25.13 10 49.9 33 -5.6 21.9
13:55 1022 30.18 851 25.13 10.2 50.3 33 -5.2 22.6
14:00 1022 30.18 851 25.13 10.1 50.2 32 -5.8 21.6
14:05 1022 30.18 851 25.13 10 50.1 33 -5.3 22.5
14:10 1022 30.18 851 25.13 10.2 50.4 33 -5.5 22.2
14:15 1022 30.18 851 25.13 9.8 49.7 33 -5.6 21.8
14:20 1022 30.18 851 25.13 10.1 50.2 33 -5.3 22.4
14:25 1022 30.18 851 25.13 10.3 50.6 32 -5.8 21.6
14:30 1022 30.18 851 25.13 10.3 50.6 34 -4.9 23.2
14:35 1022 30.18 851 25.13 10.3 50.5 33 -5.4 22.3
14:40 1022 30.18 851 25.13 10.2 50.4 32 -5.7 21.8
14:45 1022 30.18 851 25.13 10.2 50.3 34 -4.8 23.3
14:50 1022 30.18 851 25.13 10.3 50.5 37 -3.6 25.5
14:55 1022 30.18 851 25.13 10.4 50.7 36 -4.2 24.5
15:00 1022 30.18 851 25.13 10.3 50.6 37 -3.7 25.4
15:05 1022 30.18 851 25.13 10.3 50.5 37 -3.8 25.1
15:10 1022 30.18 851 25.13 10.1 50.2 39 -3.1 26.4
15:15 1022 30.18 851 25.13 10 49.9 38 -3.7 25.3
15:20 1022 30.18 851 25.13 10 50.1 38 -3.6 25.4
15:25 1022 30.18 851 25.13 10.2 50.4 35 -4.4 24
15:30 1022 30.18 851 25.13 10.3 50.6 36 -4.2 24.5
15:35 1022 30.18 851 25.13 10 50.1 38 -3.5 25.8
15:40 1022 30.18 851 25.13 9.6 49.3 40 -3.4 25.9
15:45 1022 30.18 851 25.13 9.7 49.5 40 -3.3 26.1
15:50 1022 30.18 851 25.13 9.9 49.8 41 -2.8 26.9
15:55 1022 30.18 851 25.13 9.9 49.8 38 -3.8 25.1
16:00 1022 30.18 851 25.13 10.4 50.7 37 -3.8 25.2
16:05 1022 30.18 851 25.13 10.4 50.7 42 -2 28.5
16:10 1022 30.18 851 25.13 10 49.9 41 -2.6 27.3
16:15 1022 30.18 851 25.13 10 50 39 -3.4 25.8
16:20 1022 30.18 851 25.13 10.6 51.1 39 -2.9 26.8
16:25 1022 30.18 851 25.13 10.4 50.7 38 -3.2 26.3
16:30 1022 30.18 851 25.13 10.1 50.2 38 -3.4 25.9
16:35 1022 30.18 851 25.13 10.6 51 37 -3.6 25.4
16:40 1021 30.15 851 25.13 10.9 51.6 37 -3.1 26.4
16:45 1021 30.15 851 25.13 10.8 51.4 38 -2.8 27
16:50 1022 30.18 851 25.13 10.5 50.9 38 -3 26.6
16:55 1022 30.18 851 25.13 10.6 51.1 40 -2.3 27.8
17:00 1021 30.15 851 25.13 10 49.9 41 -2.7 27.1
17:05 1021 30.15 851 25.13 10.5 50.9 38 -3.3 26.1
17:10 1021 30.15 851 25.13 11.1 52 36 -3.2 26.2
17:15 1021 30.15 851 25.13 11 51.7 38 -2.6 27.3
17:20 1021 30.15 851 25.13 10.3 50.6 40 -2.6 27.3
17:25 1021 30.15 850 25.1 10.2 50.4 38 -3.4 25.9
17:30 1021 30.15 850 25.1 10.9 51.5 39 -2.6 27.3
17:35 1021 30.15 851 25.13 10.8 51.4 38 -2.8 27
17:40 1021 30.15 851 25.13 11 51.8 34 -4.3 24.2
17:45 1021 30.15 851 25.13 11.1 52 34 -4.2 24.5
17:50 1021 30.15 851 25.13 11.4 52.5 33 -4.4 24.1
17:55 1021 30.15 851 25.13 10.5 50.8 45 -1.1 30.1
18:00 1021 30.15 851 25.13 8.9 47.9 51 -0.6 30.9
18:05 1021 30.15 851 25.13 8.3 47 53 -0.6 30.9
18:10 1021 30.15 850 25.1 8 46.5 55 -0.4 31.3
18:15 1021 30.15 850 25.1 8 46.4 56 -0.3 31.5
18:20 1021 30.15 851 25.13 8 46.4 54 -0.7 30.7
18:25 1021 30.15 851 25.13 7.9 46.3 54 -0.8 30.6
18:30 1021 30.15 851 25.13 8 46.3 56 -0.3 31.4
18:35 1021 30.15 851 25.13 7.7 45.8 57 -0.4 31.3
18:40 1021 30.15 851 25.13 7.4 45.3 56 -0.7 30.8
18:45 1021 30.15 851 25.13 7.4 45.2 56 -0.8 30.5
18:50 1021 30.15 851 25.13 7.5 45.5 55 -1 30.1
18:55 1021 30.15 851 25.13 7.6 45.7 53 -1.2 29.8
19:00 1021 30.15 851 25.13 7.5 45.6 56 -0.6 30.9
19:05 1021 30.15 851 25.13 7.4 45.4 56 -0.7 30.8
19:10 1021 30.15 851 25.13 7.3 45.2 57 -0.7 30.8
19:15 1021 30.15 851 25.13 7.2 45 60 -0.1 31.9
19:20 1021 30.15 851 25.13 7.1 44.7 61 0.2 32.3
19:25 1021 30.15 851 25.13 7 44.6 63 0.4 32.8
19:30 1021 30.15 850 25.1 6.9 44.4 62 0.2 32.4
19:35 1021 30.15 850 25.1 6.8 44.3 62 -0 31.9
19:40 1021 30.15 850 25.1 6.7 44.1 63 0.1 32.2
19:45 1021 30.15 850 25.1 6.7 44.1 63 0.2 32.4
19:50 1021 30.15 850 25.1 6.7 44.1 62 0.1 32.1
19:55 1021 30.15 850 25.1 6.7 44.1 61 -0.1 31.8
20:00 1021 30.15 850 25.1 6.8 44.3 62 0 32
20:05 1021 30.15 850 25.1 6.8 44.3 61 -0 31.9
20:10 1021 30.15 850 25.1 6.8 44.2 62 -0.1 31.9
20:15 1021 30.15 850 25.1 6.7 44 62 -0.1 31.9
20:20 1021 30.15 850 25.1 6.6 43.9 63 0 32
20:25 1021 30.15 851 25.13 6.5 43.8 63 0.1 32.1
20:30 1021 30.15 851 25.13 6.4 43.6 64 0.2 32.3
20:35 1021 30.15 850 25.1 6.3 43.3 65 0.2 32.3
20:40 1021 30.15 850 25.1 6.2 43.2 65 0.1 32.1
20:45 1021 30.15 850 25.1 6.1 43.1 65 0 32
20:50 1021 30.15 850 25.1 6 42.9 65 0 32.1
20:55 1021 30.15 850 25.1 5.9 42.6 66 0.1 32.3
21:00 1021 30.15 850 25.1 5.7 42.3 67 0 32.1
21:05 1021 30.15 850 25.1 5.7 42.2 67 0.1 32.1
21:10 1021 30.15 850 25.1 5.6 42 67 -0.1 31.8
21:15 1021 30.15 850 25.1 5.5 41.8 67 -0.1 31.8
21:20 1021 30.15 850 25.1 5.2 41.4 67 -0.3 31.4
21:25 1021 30.15 850 25.1 5.1 41.1 68 -0.4 31.2
21:30 1021 30.15 850 25.1 5 41 67 -0.5 31
21:35 1021 30.15 850 25.1 5 41 67 -0.6 30.9
21:40 1021 30.15 850 25.1 5.1 41.2 67 -0.6 30.9
21:45 1021 30.15 850 25.1 5.1 41.2 67 -0.6 31
21:50 1021 30.15 850 25.1 5.1 41.2 66 -0.6 30.9
21:55 1021 30.15 850 25.1 5 41 68 -0.5 31.1
22:00 1021 30.15 850 25.1 4.8 40.7 67 -0.8 30.5
22:05 1021 30.15 850 25.1 4.8 40.6 66 -1 30.3
22:10 1021 30.15 850 25.1 4.7 40.4 67 -0.9 30.4
22:15 1021 30.15 850 25.1 4.4 39.9 68 -1 30.3
22:20 1021 30.15 850 25.1 4.1 39.4 69 -1.1 30
22:25 1021 30.15 850 25.1 4.1 39.3 69 -1.2 29.9
22:30 1021 30.15 850 25.1 4 39.1 69 -1.2 29.9
22:35 1021 30.15 850 25.1 3.9 38.9 69 -1.2 29.8
22:40 1021 30.15 850 25.1 3.9 39 69 -1.3 29.6
22:45 1021 30.15 850 25.1 3.9 39.1 68 -1.3 29.6
22:50 1021 30.15 850 25.1 4 39.3 68 -1.3 29.6
22:55 1021 30.15 850 25.1 4.2 39.5 67 -1.4 29.5
23:00 1021 30.15 850 25.1 4.2 39.6 67 -1.3 29.7
23:05 1021 30.15 850 25.1 4.3 39.7 67 -1.3 29.7
23:10 1021 30.15 850 25.1 4.2 39.5 67 -1.3 29.6
23:15 1021 30.15 850 25.1 4.3 39.7 66 -1.5 29.3
23:20 1021 30.15 850 25.1 4.2 39.6 68 -1.2 29.8
23:25 1021 30.15 850 25.1 4 39.2 68 -1.3 29.7
23:30 1021 30.15 850 25.1 3.8 38.9 69 -1.3 29.7
23:35 1021 30.15 850 25.1 3.8 38.8 68 -1.6 29.1
23:40 1021 30.15 850 25.1 4 39.3 66 -1.7 29
23:45 1021 30.15 850 25.1 4.2 39.5 68 -1.2 29.8
23:50 1021 30.15 850 25.1 3.7 38.7 70 -1.2 29.8
23:55 1021 30.15 850 25.1 3.4 38.1 72 -1.2 29.8
24:00 1020 30.12 850 25.1 3.3 37.9 71 -1.5 29.3